Time;durP1;ratioP1;P1;durP2;ratioP2;P2;SDS_P1;SDS_P2;PMS_P1;PMS_P2;Temp;Humidity;BMP_temperature;BMP_pressure;BME280_temperature;BME280_humidity;BME280_pressure;Samples;Min_cycle;Max_cycle;Signal;HPM_P1;HPM_P2
2023/06/24 00:02:17;;;;;;;4.53;4.13;;;22.30;58.80;;;;;;5055970;28;20158;-82
2023/06/24 00:04:43;;;;;;;5.05;4.35;;;22.30;58.80;;;;;;5054877;28;20189;-81
2023/06/24 00:07:09;;;;;;;4.90;4.32;;;22.30;58.80;;;;;;5053813;28;20158;-82
2023/06/24 00:09:35;;;;;;;4.95;4.22;;;22.30;58.90;;;;;;5054949;28;20613;-82
2023/06/24 00:12:06;;;;;;;4.60;4.10;;;22.30;58.90;;;;;;5055035;28;20246;-82
2023/06/24 00:14:31;;;;;;;5.10;4.60;;;22.30;58.90;;;;;;5021221;28;20214;-82
2023/06/24 00:17:01;;;;;;;5.05;4.55;;;22.30;58.80;;;;;;5054700;28;20166;-82
2023/06/24 00:19:27;;;;;;;4.95;4.45;;;22.30;58.90;;;;;;5021168;28;20214;-82
2023/06/24 00:21:53;;;;;;;4.97;4.38;;;22.30;58.90;;;;;;5056030;28;20621;-82
2023/06/24 00:24:21;;;;;;;5.13;4.50;;;22.30;58.90;;;;;;5054344;28;20204;-82
2023/06/24 00:26:47;;;;;;;5.72;4.53;;;22.30;58.90;;;;;;5038269;28;20169;-82
2023/06/24 00:29:13;;;;;;;4.40;4.00;;;22.30;58.90;;;;;;5055314;28;20158;-82
2023/06/24 00:31:39;;;;;;;5.20;4.35;;;22.30;58.90;;;;;;5037824;28;20617;-83
2023/06/24 00:34:05;;;;;;;4.30;3.90;;;22.30;58.90;;;;;;5054162;28;20172;-83
2023/06/24 00:36:32;;;;;;;5.15;4.20;;;22.30;58.90;;;;;;5055621;28;20620;-82
2023/06/24 00:39:05;;;;;;;4.97;4.47;;;22.30;58.90;;;;;;5055724;28;20178;-83
2023/06/24 00:41:32;;;;;;;4.95;4.38;;;22.30;58.90;;;;;;5055303;28;20597;-82
2023/06/24 00:43:58;;;;;;;4.95;4.45;;;22.30;58.90;;;;;;5055595;28;20162;-83
2023/06/24 00:46:25;;;;;;;4.53;4.13;;;22.30;58.90;;;;;;5055143;28;20154;-83
2023/06/24 00:48:54;;;;;;;4.82;4.30;;;22.20;58.90;;;;;;5053813;28;20226;-82
2023/06/24 00:51:21;;;;;;;4.50;4.10;;;22.30;59.00;;;;;;5053971;28;20172;-82
2023/06/24 00:53:47;;;;;;;4.68;4.18;;;22.20;59.00;;;;;;5053734;28;20153;-82
2023/06/24 00:56:16;;;;;;;4.88;4.22;;;22.30;59.10;;;;;;5054243;28;20158;-81
2023/06/24 00:58:43;;;;;;;4.65;4.07;;;22.30;59.10;;;;;;5055226;28;20192;-82
2023/06/24 01:01:10;;;;;;;5.15;4.65;;;22.30;59.10;;;;;;5055349;28;20150;-82
2023/06/24 01:03:36;;;;;;;4.57;4.18;;;22.20;59.10;;;;;;5020622;28;20281;-82
2023/06/24 01:06:02;;;;;;;4.50;4.10;;;22.20;59.10;;;;;;5055079;28;20630;-82
2023/06/24 01:08:28;;;;;;;4.82;4.30;;;22.20;59.10;;;;;;5054852;28;20166;-82
2023/06/24 01:10:54;;;;;;;4.47;4.07;;;22.20;59.10;;;;;;5053508;28;20643;-82
2023/06/24 01:13:21;;;;;;;4.68;4.20;;;22.20;59.10;;;;;;5053469;28;20189;-82
2023/06/24 01:15:47;;;;;;;5.45;4.75;;;22.20;59.10;;;;;;5020833;28;20178;-81
2023/06/24 01:18:24;;;;;;;5.53;4.43;;;22.20;59.10;;;;;;5053180;28;20272;-82
2023/06/24 01:21:03;;;;;;;5.13;4.60;;;22.20;59.10;;;;;;5054889;28;20150;-82
2023/06/24 01:23:41;;;;;;;5.07;4.38;;;22.20;59.10;;;;;;5036482;28;20165;-82
2023/06/24 01:26:42;;;;;;;4.72;4.22;;;22.20;59.10;;;;;;5054734;28;20166;-82
2023/06/24 01:29:27;;;;;;;4.93;4.43;;;22.20;59.10;;;;;;5054346;28;20601;-82
2023/06/24 01:32:07;;;;;;;4.75;4.00;;;22.20;59.10;;;;;;5036552;28;20205;-81
2023/06/24 01:34:42;;;;;;;4.60;4.07;;;22.20;59.10;;;;;;5036351;28;20269;-81
2023/06/24 01:37:15;;;;;;;5.20;4.68;;;22.20;59.20;;;;;;5003848;28;20213;-82
2023/06/24 01:39:47;;;;;;;5.00;4.50;;;22.20;59.20;;;;;;5036344;28;20201;-81
2023/06/24 01:42:13;;;;;;;5.10;4.38;;;22.20;59.20;;;;;;5053334;28;20245;-82
2023/06/24 01:44:39;;;;;;;4.97;4.47;;;22.20;59.20;;;;;;5052798;28;20156;-82
2023/06/24 01:47:05;;;;;;;4.50;4.10;;;22.20;59.20;;;;;;5054105;28;20158;-82
2023/06/24 01:49:33;;;;;;;4.63;4.20;;;22.20;59.20;;;;;;5052755;28;20256;-82
2023/06/24 01:52:03;;;;;;;5.07;4.57;;;22.20;59.20;;;;;;5036484;28;20154;-81
2023/06/24 01:54:29;;;;;;;5.50;4.40;;;22.20;59.30;;;;;;5035555;28;20197;-82
2023/06/24 01:56:55;;;;;;;4.90;4.20;;;22.20;59.30;;;;;;5036218;28;20169;-82
2023/06/24 01:59:21;;;;;;;5.25;4.57;;;22.10;59.20;;;;;;5035721;28;20197;-83
2023/06/24 02:01:47;;;;;;;5.20;4.35;;;22.10;59.20;;;;;;5052349;28;20162;-82
2023/06/24 02:04:13;;;;;;;4.93;4.13;;;22.20;59.20;;;;;;5053583;28;20230;-82
2023/06/24 02:06:39;;;;;;;4.72;4.22;;;22.10;59.10;;;;;;5035858;28;20158;-82
2023/06/24 02:09:05;;;;;;;4.88;4.40;;;22.10;59.10;;;;;;5036012;28;20517;-82
2023/06/24 02:11:32;;;;;;;4.50;4.10;;;22.10;59.20;;;;;;5035918;28;20232;-82
2023/06/24 02:13:57;;;;;;;4.82;4.30;;;22.10;59.20;;;;;;5035773;28;20177;-82
2023/06/24 02:16:23;;;;;;;4.70;4.20;;;22.10;59.20;;;;;;5052259;28;20181;-82
2023/06/24 02:18:49;;;;;;;4.95;4.38;;;22.20;59.30;;;;;;5036118;28;20273;-82
2023/06/24 02:21:20;;;;;;;4.90;4.40;;;22.20;59.30;;;;;;5052650;28;20154;-81
2023/06/24 02:23:46;;;;;;;4.75;4.20;;;22.10;59.20;;;;;;5018841;28;20178;-82
2023/06/24 02:26:12;;;;;;;4.85;4.38;;;22.10;59.30;;;;;;5052465;28;20165;-82
2023/06/24 02:28:38;;;;;;;5.38;4.50;;;22.10;59.30;;;;;;5052697;28;20521;-82
2023/06/24 02:31:04;;;;;;;4.82;4.32;;;22.10;59.30;;;;;;5053510;28;20170;-82
2023/06/24 02:33:30;;;;;;;5.07;4.40;;;22.10;59.30;;;;;;5056459;28;20556;-82
2023/06/24 02:35:56;;;;;;;4.88;4.07;;;22.10;59.40;;;;;;5057936;28;20158;-82
2023/06/24 02:38:22;;;;;;;4.80;3.95;;;22.10;59.40;;;;;;5039409;28;20220;-82
2023/06/24 02:40:49;;;;;;;4.50;4.10;;;22.10;59.40;;;;;;5057547;28;20498;-82
2023/06/24 02:43:16;;;;;;;4.97;4.30;;;22.10;59.40;;;;;;5056267;28;20152;-82
2023/06/24 02:45:42;;;;;;;5.18;4.32;;;22.10;59.40;;;;;;5056312;28;20597;-83
2023/06/24 02:48:09;;;;;;;5.10;4.38;;;22.10;59.30;;;;;;5057542;28;20157;-83
2023/06/24 02:50:40;;;;;;;4.93;4.43;;;22.10;59.40;;;;;;5059668;28;20177;-83
2023/06/24 02:53:07;;;;;;;4.85;4.35;;;22.10;59.40;;;;;;5026798;28;20185;-83
2023/06/24 02:55:33;;;;;;;5.13;4.63;;;22.00;59.40;;;;;;5077947;28;20199;-82
2023/06/24 02:57:59;;;;;;;4.70;4.28;;;22.00;59.40;;;;;;5059698;28;20189;-82
2023/06/24 03:00:25;;;;;;;4.63;4.20;;;22.10;59.50;;;;;;5059637;28;20157;-82
2023/06/24 03:02:51;;;;;;;4.80;4.30;;;22.10;59.30;;;;;;5059352;28;20173;-82
2023/06/24 03:05:18;;;;;;;4.55;4.13;;;22.10;59.40;;;;;;5077485;28;20207;-83
2023/06/24 03:07:44;;;;;;;4.40;3.92;;;22.10;59.40;;;;;;5059729;28;20148;-83
2023/06/24 03:10:10;;;;;;;5.03;4.53;;;22.10;59.40;;;;;;5077309;28;20161;-83
2023/06/24 03:12:36;;;;;;;5.03;4.47;;;22.10;59.40;;;;;;5043063;28;20169;-83
2023/06/24 03:15:02;;;;;;;4.55;4.15;;;22.10;59.40;;;;;;5059553;28;20612;-83
2023/06/24 03:17:29;;;;;;;4.53;4.07;;;22.10;59.40;;;;;;5059381;28;20604;-83
2023/06/24 03:19:55;;;;;;;4.88;4.38;;;22.10;59.40;;;;;;5059432;28;20189;-83
2023/06/24 03:22:22;;;;;;;5.50;4.57;;;22.10;59.30;;;;;;5059286;28;20176;-83
2023/06/24 03:24:48;;;;;;;4.57;4.03;;;22.10;59.20;;;;;;5059368;28;20225;-83
2023/06/24 03:27:15;;;;;;;4.82;4.20;;;22.10;59.20;;;;;;5077235;28;20173;-83
2023/06/24 03:29:41;;;;;;;4.90;4.40;;;22.10;59.30;;;;;;5059460;28;20157;-82
2023/06/24 03:32:07;;;;;;;4.43;4.03;;;22.10;59.30;;;;;;5059469;28;20158;-83
2023/06/24 03:34:33;;;;;;;5.28;4.55;;;22.10;59.20;;;;;;5077300;28;20157;-83
2023/06/24 03:36:59;;;;;;;5.03;4.53;;;22.20;59.30;;;;;;5042314;28;20176;-83
2023/06/24 03:39:25;;;;;;;5.00;4.50;;;22.10;59.20;;;;;;5075876;28;20219;-84
2023/06/24 03:41:51;;;;;;;4.68;4.18;;;22.20;59.20;;;;;;5075808;28;20196;-83
2023/06/24 03:44:17;;;;;;;5.03;4.45;;;22.30;59.20;;;;;;5041894;28;20173;-83
2023/06/24 03:46:43;;;;;;;5.25;4.40;;;22.20;59.10;;;;;;5075736;28;20210;-84
2023/06/24 03:49:08;;;;;;;4.80;4.30;;;22.20;59.10;;;;;;5041306;28;20220;-83
2023/06/24 03:51:34;;;;;;;4.25;3.85;;;22.20;59.10;;;;;;5041314;28;20252;-83
2023/06/24 03:54:00;;;;;;;5.00;4.50;;;22.30;59.00;;;;;;5075748;28;20164;-83
2023/06/24 03:56:27;;;;;;;4.22;3.83;;;22.20;58.90;;;;;;5058058;28;20193;-83
2023/06/24 03:58:53;;;;;;;4.88;4.38;;;22.20;59.00;;;;;;5057503;28;20562;-83
2023/06/24 04:01:19;;;;;;;4.57;4.10;;;22.20;59.00;;;;;;5041248;28;20193;-84
2023/06/24 04:03:46;;;;;;;4.55;4.15;;;22.20;59.10;;;;;;5057553;28;20150;-83
2023/06/24 04:06:12;;;;;;;4.32;3.92;;;22.20;59.10;;;;;;5057792;28;20164;-83
2023/06/24 04:08:39;;;;;;;4.85;4.35;;;22.30;59.10;;;;;;5057871;28;20609;-83
2023/06/24 04:11:06;;;;;;;4.68;4.18;;;22.10;59.10;;;;;;5057548;28;20249;-83
2023/06/24 04:13:33;;;;;;;4.72;4.22;;;22.10;59.10;;;;;;5041195;28;20157;-84
2023/06/24 04:15:58;;;;;;;4.60;4.18;;;22.20;59.00;;;;;;5057308;28;20161;-83
2023/06/24 04:18:25;;;;;;;4.53;4.13;;;22.20;59.10;;;;;;5057236;28;20185;-83
2023/06/24 04:20:51;;;;;;;4.30;3.90;;;22.20;58.90;;;;;;5075191;28;20210;-83
2023/06/24 04:23:16;;;;;;;4.85;4.00;;;22.30;58.90;;;;;;5040551;28;20255;-83
2023/06/24 04:25:42;;;;;;;4.85;4.35;;;22.30;58.90;;;;;;5057112;28;20338;-84
2023/06/24 04:28:08;;;;;;;4.90;4.40;;;22.30;58.80;;;;;;5057423;28;20532;-83
2023/06/24 04:30:38;;;;;;;5.00;4.40;;;22.30;58.70;;;;;;5057346;28;20184;-83
2023/06/24 04:33:04;;;;;;;4.82;4.32;;;22.40;58.60;;;;;;5074958;28;20153;-83
2023/06/24 04:35:31;;;;;;;4.20;3.80;;;22.30;58.70;;;;;;5074779;28;20165;-83
2023/06/24 04:37:57;;;;;;;5.03;4.50;;;22.30;58.60;;;;;;5040260;28;20252;-83
2023/06/24 04:40:23;;;;;;;4.18;3.72;;;22.40;58.60;;;;;;5074830;28;20358;-84
2023/06/24 04:42:48;;;;;;;4.88;4.38;;;22.40;58.60;;;;;;5056806;28;20157;-83
2023/06/24 04:45:14;;;;;;;4.45;4.05;;;22.40;58.60;;;;;;5039998;28;20158;-84
2023/06/24 04:47:40;;;;;;;5.30;4.45;;;22.40;58.50;;;;;;5074831;28;20157;-84
2023/06/24 04:50:09;;;;;;;5.18;4.40;;;22.40;58.50;;;;;;5036529;28;20312;-83
2023/06/24 04:52:35;;;;;;;4.78;4.18;;;22.40;58.40;;;;;;5036996;28;20174;-84
2023/06/24 04:55:01;;;;;;;4.90;4.38;;;22.40;58.40;;;;;;5035937;28;20173;-83
2023/06/24 04:57:29;;;;;;;4.75;4.25;;;22.40;58.30;;;;;;5054320;28;20165;-84
2023/06/24 04:59:55;;;;;;;4.30;3.90;;;22.50;58.30;;;;;;5020247;28;20581;-83
2023/06/24 05:02:21;;;;;;;4.80;4.38;;;22.50;58.10;;;;;;5052958;28;20162;-83
2023/06/24 05:04:47;;;;;;;4.93;4.10;;;22.50;58.30;;;;;;5053174;28;20182;-83
2023/06/24 05:07:13;;;;;;;4.72;4.13;;;22.40;58.20;;;;;;5053286;28;20166;-84
2023/06/24 05:09:39;;;;;;;4.82;4.32;;;22.50;58.20;;;;;;5053375;28;20181;-84
2023/06/24 05:12:06;;;;;;;4.47;4.07;;;22.50;58.10;;;;;;5053279;28;20158;-84
2023/06/24 05:14:34;;;;;;;4.60;4.05;;;22.50;58.10;;;;;;5052717;28;20232;-83
2023/06/24 05:17:00;;;;;;;4.30;3.90;;;22.50;58.10;;;;;;5036237;28;20182;-85
2023/06/24 05:19:26;;;;;;;5.35;3.85;;;22.50;58.10;;;;;;5052614;28;20213;-83
2023/06/24 05:21:52;;;;;;;4.82;4.30;;;22.50;58.00;;;;;;5052838;28;20597;-84
2023/06/24 05:24:18;;;;;;;4.63;4.07;;;22.50;58.00;;;;;;5052541;28;20158;-83
2023/06/24 05:26:50;;;;;;;4.60;3.90;;;22.60;57.90;;;;;;5052447;28;20158;-84
2023/06/24 05:29:16;;;;;;;4.72;4.15;;;22.50;57.80;;;;;;5036281;28;20162;-83
2023/06/24 05:31:43;;;;;;;4.70;4.20;;;22.50;57.90;;;;;;5053767;28;20150;-83
2023/06/24 05:34:09;;;;;;;4.60;4.10;;;22.60;57.80;;;;;;5052778;28;20170;-84
2023/06/24 05:36:35;;;;;;;4.60;4.20;;;22.60;57.70;;;;;;5052564;28;20158;-83
2023/06/24 05:39:01;;;;;;;4.63;3.83;;;22.60;57.80;;;;;;5035817;28;20193;-84
2023/06/24 05:41:27;;;;;;;4.70;4.05;;;22.60;57.60;;;;;;5053600;28;20158;-84
2023/06/24 05:44:09;;;;;;;4.53;4.00;;;22.70;58.20;;;;;;5053754;28;20158;-84
2023/06/24 05:46:36;;;;;;;4.30;3.90;;;22.60;57.70;;;;;;5052249;28;20154;-84
2023/06/24 05:49:01;;;;;;;4.47;4.07;;;22.70;57.70;;;;;;5035754;28;20228;-84
2023/06/24 05:51:27;;;;;;;4.35;3.95;;;22.70;57.50;;;;;;5052262;28;20173;-84
2023/06/24 05:53:53;;;;;;;4.43;4.00;;;22.70;57.40;;;;;;5052629;28;20173;-84
2023/06/24 05:56:20;;;;;;;5.10;4.60;;;22.70;57.50;;;;;;5052526;28;20176;-84
2023/06/24 05:58:46;;;;;;;4.60;4.10;;;22.70;57.40;;;;;;5051936;28;20185;-84
2023/06/24 06:01:12;;;;;;;4.63;4.13;;;22.80;57.20;;;;;;5052333;28;20185;-83
2023/06/24 06:03:38;;;;;;;4.32;3.92;;;22.70;57.40;;;;;;5053299;28;20149;-84
2023/06/24 06:06:04;;;;;;;4.22;3.83;;;22.70;57.50;;;;;;5051210;28;20159;-84
2023/06/24 06:08:30;;;;;;;5.07;4.25;;;22.70;57.40;;;;;;5035502;28;20188;-84
2023/06/24 06:10:56;;;;;;;4.38;3.97;;;22.70;57.30;;;;;;5053131;28;20158;-84
2023/06/24 06:13:21;;;;;;;4.50;4.03;;;22.70;57.50;;;;;;5053475;28;20169;-84
2023/06/24 06:15:47;;;;;;;4.93;4.10;;;22.80;57.30;;;;;;5035255;28;20205;-84
2023/06/24 06:18:13;;;;;;;4.97;3.78;;;22.80;57.30;;;;;;5051838;28;20190;-84
2023/06/24 06:20:39;;;;;;;4.30;3.90;;;22.70;57.40;;;;;;5035412;28;20157;-84
2023/06/24 06:23:05;;;;;;;4.45;3.85;;;22.80;57.10;;;;;;5053342;28;20203;-84
2023/06/24 06:25:31;;;;;;;4.72;4.15;;;22.90;57.00;;;;;;5051874;28;20284;-84
2023/06/24 06:27:58;;;;;;;4.32;3.90;;;22.80;57.00;;;;;;5051871;28;20155;-84
2023/06/24 06:30:24;;;;;;;4.55;4.13;;;22.80;57.10;;;;;;5051600;28;20552;-84
2023/06/24 06:32:49;;;;;;;4.15;3.75;;;22.80;57.20;;;;;;5053311;28;20169;-84
2023/06/24 06:35:15;;;;;;;4.15;3.75;;;22.70;57.40;;;;;;5051739;28;20166;-84
2023/06/24 06:37:41;;;;;;;4.53;3.88;;;22.70;57.30;;;;;;5035119;28;20621;-84
2023/06/24 06:40:08;;;;;;;4.00;3.60;;;22.60;57.30;;;;;;5051382;28;20713;-84
2023/06/24 06:42:33;;;;;;;4.20;3.80;;;22.50;56.80;;;;;;5053138;28;20185;-84
2023/06/24 06:44:59;;;;;;;3.70;3.38;;;22.40;56.90;;;;;;5052019;28;20188;-84
2023/06/24 06:47:25;;;;;;;3.90;3.45;;;22.40;56.00;;;;;;5034990;28;20182;-84
2023/06/24 06:49:51;;;;;;;3.90;3.50;;;22.30;55.40;;;;;;5034731;28;20225;-84
2023/06/24 06:52:17;;;;;;;3.60;3.05;;;22.40;54.90;;;;;;5051696;28;20161;-84
2023/06/24 06:54:43;;;;;;;3.67;3.38;;;22.50;54.20;;;;;;5051868;28;20181;-84
2023/06/24 06:57:09;;;;;;;4.13;3.50;;;22.50;54.10;;;;;;5051296;28;20162;-85
2023/06/24 06:59:35;;;;;;;3.67;3.03;;;22.40;54.40;;;;;;5035320;28;20197;-83
2023/06/24 07:02:01;;;;;;;3.30;3.00;;;22.50;53.60;;;;;;5051402;28;20196;-84
2023/06/24 07:04:27;;;;;;;3.45;3.05;;;22.50;53.90;;;;;;5052886;28;20517;-84
2023/06/24 07:06:53;;;;;;;3.30;3.00;;;22.40;53.20;;;;;;5051910;28;20316;-84
2023/06/24 07:09:24;;;;;;;3.33;3.03;;;22.40;53.30;;;;;;5052619;28;20635;-84
2023/06/24 07:11:50;;;;;;;2.85;2.40;;;22.50;52.50;;;;;;5001874;28;20277;-83
2023/06/24 07:14:16;;;;;;;3.00;2.55;;;22.60;52.10;;;;;;5051434;28;20186;-84
2023/06/24 07:16:42;;;;;;;3.65;3.08;;;22.60;51.50;;;;;;5052123;28;20162;-83
2023/06/24 07:19:07;;;;;;;3.00;2.70;;;22.50;52.10;;;;;;5056614;28;20193;-84
2023/06/24 07:21:33;;;;;;;3.50;3.10;;;22.50;52.10;;;;;;5055099;28;20196;-84
2023/06/24 07:23:59;;;;;;;3.58;3.17;;;22.40;52.00;;;;;;5038962;28;20158;-84
2023/06/24 07:26:28;;;;;;;3.30;2.97;;;22.40;52.30;;;;;;5054817;28;20158;-83
2023/06/24 07:28:56;;;;;;;5.18;3.15;;;22.40;52.10;;;;;;5056059;28;20241;-84
2023/06/24 07:31:22;;;;;;;3.17;2.67;;;22.40;51.50;;;;;;5038295;28;20253;-84
2023/06/24 07:33:48;;;;;;;3.25;2.90;;;22.40;51.60;;;;;;5038165;28;20178;-83
2023/06/24 07:36:14;;;;;;;3.38;2.75;;;22.30;52.60;;;;;;5054900;28;20192;-84
2023/06/24 07:38:40;;;;;;;3.25;2.85;;;22.30;51.20;;;;;;5055935;28;20711;-83
2023/06/24 07:41:06;;;;;;;3.58;3.28;;;22.40;51.60;;;;;;5054756;28;20165;-84
2023/06/24 07:43:32;;;;;;;3.35;2.97;;;22.40;51.60;;;;;;5056201;28;20158;-83
2023/06/24 07:45:58;;;;;;;3.05;2.75;;;22.40;51.50;;;;;;5054587;28;20189;-85
2023/06/24 07:48:23;;;;;;;3.10;2.80;;;22.40;51.10;;;;;;5058225;28;20166;-84
2023/06/24 07:50:49;;;;;;;3.10;2.80;;;22.40;51.10;;;;;;5041804;28;20615;-84
2023/06/24 07:53:15;;;;;;;3.00;2.70;;;22.40;51.30;;;;;;5057867;28;20193;-84
2023/06/24 07:55:41;;;;;;;3.15;2.85;;;22.40;50.90;;;;;;5041103;28;20170;-84
2023/06/24 07:58:07;;;;;;;2.97;2.67;;;22.50;51.10;;;;;;5040935;28;20165;-84
2023/06/24 08:00:33;;;;;;;3.30;3.00;;;22.40;50.90;;;;;;5075759;28;20715;-84
2023/06/24 08:02:59;;;;;;;3.25;2.95;;;22.50;51.00;;;;;;5041253;28;20175;-83
2023/06/24 08:05:25;;;;;;;3.60;3.20;;;22.40;50.80;;;;;;5040890;28;20161;-84
2023/06/24 08:07:52;;;;;;;2.97;2.67;;;22.40;51.00;;;;;;5057579;28;20508;-84
2023/06/24 08:10:18;;;;;;;2.80;2.50;;;22.40;50.80;;;;;;5057902;28;20154;-84
2023/06/24 08:12:44;;;;;;;3.05;2.70;;;22.40;50.80;;;;;;5075378;28;20157;-84
2023/06/24 08:15:10;;;;;;;2.70;2.50;;;22.40;50.30;;;;;;5075337;28;20237;-85
2023/06/24 08:17:36;;;;;;;2.67;2.47;;;22.40;50.30;;;;;;5040721;28;20162;-84
2023/06/24 08:20:02;;;;;;;3.10;2.80;;;22.50;50.30;;;;;;5040523;28;20250;-84
2023/06/24 08:22:28;;;;;;;2.97;2.67;;;22.40;50.30;;;;;;5057865;28;20244;-84
2023/06/24 08:24:54;;;;;;;2.88;2.58;;;22.40;49.90;;;;;;5041184;28;20216;-84
2023/06/24 08:27:20;;;;;;;2.47;2.28;;;22.50;49.80;;;;;;5057195;28;20162;-84
2023/06/24 08:29:46;;;;;;;2.63;2.28;;;22.50;49.50;;;;;;5074204;28;20632;-84
2023/06/24 08:32:12;;;;;;;2.47;2.28;;;22.50;49.40;;;;;;5075057;28;20157;-83
2023/06/24 08:34:38;;;;;;;2.50;2.30;;;22.50;49.70;;;;;;5075063;28;20169;-84
2023/06/24 08:37:04;;;;;;;2.58;2.38;;;22.50;49.40;;;;;;5057278;28;20162;-84
2023/06/24 08:39:30;;;;;;;2.80;2.60;;;22.50;49.60;;;;;;5074777;28;20655;-83
2023/06/24 08:41:56;;;;;;;2.47;2.28;;;22.40;49.30;;;;;;5057358;28;20172;-84
2023/06/24 08:44:21;;;;;;;2.72;2.50;;;22.50;49.10;;;;;;5074781;28;20523;-84
2023/06/24 08:46:48;;;;;;;2.58;2.33;;;22.50;49.10;;;;;;5074613;28;20205;-84
2023/06/24 08:49:23;;;;;;;2.30;2.10;;;22.50;49.10;;;;;;5053609;28;20229;-84
2023/06/24 08:51:53;;;;;;;2.53;2.30;;;22.50;49.10;;;;;;5037569;28;20174;-84
2023/06/24 08:54:19;;;;;;;2.95;2.55;;;22.40;49.40;;;;;;5054731;28;20163;-84
2023/06/24 08:56:45;;;;;;;2.78;2.53;;;22.50;49.20;;;;;;5020869;28;20239;-83
2023/06/24 08:59:11;;;;;;;2.17;1.98;;;22.50;48.90;;;;;;5054406;28;20649;-83
2023/06/24 09:01:37;;;;;;;2.50;2.30;;;22.60;48.80;;;;;;5053535;28;20163;-83
2023/06/24 09:04:03;;;;;;;2.72;2.53;;;22.50;48.70;;;;;;5054365;28;20166;-84
2023/06/24 09:06:31;;;;;;;2.92;2.65;;;22.60;48.70;;;;;;5036495;28;20237;-84
2023/06/24 09:08:57;;;;;;;2.70;2.50;;;22.50;48.70;;;;;;5036515;28;20166;-84
2023/06/24 09:11:26;;;;;;;2.65;2.45;;;22.50;48.80;;;;;;5052985;28;20185;-84
2023/06/24 09:13:56;;;;;;;2.30;2.10;;;22.50;48.70;;;;;;5037105;28;20155;-83
2023/06/24 09:16:22;;;;;;;2.72;2.45;;;22.50;48.80;;;;;;5052968;28;20158;-83
2023/06/24 09:18:49;;;;;;;2.20;2.00;;;22.50;48.70;;;;;;5052785;28;20193;-84
2023/06/24 09:21:24;;;;;;;2.30;2.10;;;22.50;48.50;;;;;;5053921;28;20158;-83
2023/06/24 09:23:53;;;;;;;2.33;2.13;;;22.60;48.60;;;;;;5052596;28;20184;-83
2023/06/24 09:26:19;;;;;;;2.40;2.20;;;22.50;48.50;;;;;;5052458;28;20508;-84
2023/06/24 09:28:50;;;;;;;2.40;2.20;;;22.50;48.30;;;;;;5019524;28;20166;-84
2023/06/24 09:31:16;;;;;;;2.25;2.05;;;22.60;48.20;;;;;;5036258;28;20162;-84
2023/06/24 09:33:42;;;;;;;2.20;2.03;;;22.70;48.30;;;;;;5036026;28;20162;-83
2023/06/24 09:36:12;;;;;;;2.20;2.00;;;22.60;48.30;;;;;;5053083;28;20161;-83
2023/06/24 09:38:40;;;;;;;2.10;1.90;;;22.60;48.10;;;;;;5035718;28;20217;-84
2023/06/24 09:41:10;;;;;;;2.17;2.00;;;22.60;47.90;;;;;;5053312;28;20237;-83
2023/06/24 09:43:36;;;;;;;2.30;2.10;;;22.60;48.00;;;;;;5019037;28;20257;-83
2023/06/24 09:46:04;;;;;;;2.10;1.92;;;22.60;48.10;;;;;;5052321;28;20623;-83
2023/06/24 09:48:29;;;;;;;2.50;2.30;;;22.60;47.90;;;;;;5035670;28;20233;-83
2023/06/24 09:50:59;;;;;;;2.20;2.00;;;22.60;47.90;;;;;;5035992;28;20584;-83
2023/06/24 09:53:25;;;;;;;1.63;1.52;;;22.60;48.00;;;;;;5019460;28;20174;-84
2023/06/24 09:55:51;;;;;;;2.20;2.00;;;22.70;47.90;;;;;;5053395;28;20167;-83
2023/06/24 09:58:17;;;;;;;2.20;2.00;;;22.60;48.00;;;;;;5035541;28;20193;-83
2023/06/24 10:00:43;;;;;;;2.03;1.92;;;22.50;47.90;;;;;;5053267;28;20644;-84
2023/06/24 10:03:09;;;;;;;2.28;2.08;;;22.60;47.90;;;;;;5036033;28;20162;-83
2023/06/24 10:05:35;;;;;;;2.25;2.10;;;22.60;47.80;;;;;;5052406;28;20166;-83
2023/06/24 10:08:05;;;;;;;2.33;2.13;;;22.70;47.70;;;;;;5035410;28;20162;-83
2023/06/24 10:10:31;;;;;;;2.20;2.00;;;22.60;47.60;;;;;;5035886;28;20162;-84
2023/06/24 10:12:57;;;;;;;2.20;2.00;;;22.70;47.50;;;;;;5052149;28;20238;-83
2023/06/24 10:15:23;;;;;;;2.28;1.90;;;22.70;47.50;;;;;;5051911;28;20606;-83
2023/06/24 10:17:51;;;;;;;2.40;2.20;;;22.70;47.50;;;;;;5053108;28;20249;-84
2023/06/24 10:20:26;;;;;;;2.28;2.08;;;22.70;47.50;;;;;;5051764;28;20652;-83
2023/06/24 10:22:52;;;;;;;2.00;1.90;;;22.70;47.60;;;;;;5035147;28;20620;-84
2023/06/24 10:25:18;;;;;;;2.40;2.20;;;22.70;47.50;;;;;;5052086;28;20162;-83
2023/06/24 10:27:44;;;;;;;2.22;2.03;;;22.70;47.60;;;;;;5053455;28;20257;-84
2023/06/24 10:30:18;;;;;;;2.25;2.05;;;22.70;47.50;;;;;;5035311;28;20610;-85
2023/06/24 10:32:44;;;;;;;2.20;2.00;;;22.70;47.50;;;;;;5035170;28;20193;-83
2023/06/24 10:35:21;;;;;;;2.17;1.98;;;22.70;47.30;;;;;;5035137;28;20481;-83
2023/06/24 10:37:55;;;;;;;1.90;1.80;;;22.70;47.40;;;;;;5051500;28;20168;-84
2023/06/24 10:40:36;;;;;;;2.15;1.95;;;22.70;47.30;;;;;;5051663;28;20178;-84
2023/06/24 10:43:03;;;;;;;1.60;1.50;;;22.70;47.30;;;;;;5051751;28;20200;-83
2023/06/24 10:45:30;;;;;;;2.20;2.00;;;22.80;47.30;;;;;;5052730;28;20158;-84
2023/06/24 10:47:56;;;;;;;1.85;1.75;;;22.80;47.30;;;;;;5035103;28;20159;-83
2023/06/24 10:50:23;;;;;;;2.30;2.10;;;22.80;47.40;;;;;;5051401;28;20225;-84
2023/06/24 10:52:55;;;;;;;1.80;1.70;;;22.80;47.40;;;;;;5037785;28;20178;-83
2023/06/24 10:55:24;;;;;;;2.20;2.00;;;22.70;47.40;;;;;;5023150;28;20169;-83
2023/06/24 10:57:50;;;;;;;1.98;1.88;;;22.80;47.30;;;;;;5056843;28;20208;-84
2023/06/24 11:00:16;;;;;;;2.13;2.00;;;22.80;47.30;;;;;;5055301;28;20648;-83
2023/06/24 11:02:42;;;;;;;2.00;1.90;;;22.80;47.10;;;;;;5055826;28;20229;-84
2023/06/24 11:05:08;;;;;;;2.20;2.05;;;22.80;47.10;;;;;;5056869;28;20154;-83
2023/06/24 11:07:35;;;;;;;2.53;2.10;;;22.80;47.10;;;;;;5056732;28;20158;-83
2023/06/24 11:10:04;;;;;;;2.30;2.10;;;22.80;47.20;;;;;;5038600;28;20613;-84
2023/06/24 11:12:32;;;;;;;2.17;1.98;;;22.90;47.20;;;;;;5055412;28;20185;-83
2023/06/24 11:15:00;;;;;;;2.40;2.20;;;22.80;47.20;;;;;;5055510;28;20561;-83
2023/06/24 11:17:26;;;;;;;2.03;1.85;;;22.90;47.20;;;;;;5056234;28;20185;-83
2023/06/24 11:19:53;;;;;;;2.30;2.10;;;22.80;47.30;;;;;;5056211;28;20214;-83
2023/06/24 11:22:19;;;;;;;2.30;2.10;;;22.80;47.30;;;;;;5038454;28;20158;-83
2023/06/24 11:24:45;;;;;;;2.15;2.00;;;22.80;47.20;;;;;;5055256;28;20517;-83
2023/06/24 11:27:11;;;;;;;2.17;1.98;;;22.80;47.30;;;;;;5056402;28;20172;-84
2023/06/24 11:29:37;;;;;;;2.30;2.10;;;22.90;47.20;;;;;;5054950;28;20257;-84
2023/06/24 11:32:03;;;;;;;2.15;1.95;;;22.90;47.10;;;;;;5054863;28;20169;-83
2023/06/24 11:34:30;;;;;;;2.15;1.95;;;22.90;47.20;;;;;;5056343;28;20155;-84
2023/06/24 11:36:56;;;;;;;2.28;2.08;;;22.90;47.20;;;;;;5054605;28;20208;-83
2023/06/24 11:39:23;;;;;;;2.33;2.13;;;22.90;47.10;;;;;;5056100;28;20190;-83
2023/06/24 11:41:50;;;;;;;2.13;1.92;;;22.90;47.20;;;;;;5021695;28;20158;-83
2023/06/24 11:44:19;;;;;;;2.60;2.40;;;22.90;47.10;;;;;;5054334;28;20154;-83
2023/06/24 11:46:45;;;;;;;2.30;2.10;;;22.90;47.10;;;;;;5055698;28;20182;-84
2023/06/24 11:49:10;;;;;;;1.92;1.83;;;22.90;47.20;;;;;;5054479;28;20221;-83
2023/06/24 11:51:48;;;;;;;2.28;2.08;;;22.90;47.30;;;;;;5037941;28;20181;-83
2023/06/24 11:54:14;;;;;;;2.42;2.22;;;22.90;47.60;;;;;;5023733;28;20248;-82
2023/06/24 11:56:41;;;;;;;2.10;2.00;;;23.00;47.10;;;;;;5055133;28;20162;-82
2023/06/24 11:59:17;;;;;;;2.15;1.95;;;23.00;47.10;;;;;;5055119;28;20575;-83
2023/06/24 12:01:43;;;;;;;2.00;1.90;;;23.00;47.20;;;;;;5055348;28;20157;-83
2023/06/24 12:04:14;;;;;;;2.22;2.03;;;22.90;47.20;;;;;;5055355;28;20190;-83
2023/06/24 12:06:41;;;;;;;2.13;1.92;;;22.90;47.10;;;;;;5005053;28;20213;-83
2023/06/24 12:09:09;;;;;;;2.22;2.10;;;22.90;47.10;;;;;;5055006;28;20151;-83
2023/06/24 12:11:35;;;;;;;2.28;2.08;;;22.90;47.20;;;;;;5054951;28;20633;-82
2023/06/24 12:14:01;;;;;;;2.22;2.03;;;22.90;47.20;;;;;;5038545;28;20177;-83
2023/06/24 12:16:27;;;;;;;2.30;2.10;;;22.90;47.10;;;;;;5055103;28;20158;-82
2023/06/24 12:18:53;;;;;;;2.17;1.98;;;23.00;47.10;;;;;;5055658;28;20194;-82
2023/06/24 12:21:19;;;;;;;2.00;1.90;;;23.00;47.20;;;;;;5038083;28;20162;-83
2023/06/24 12:23:45;;;;;;;2.15;2.00;;;22.90;47.30;;;;;;5054954;28;20154;-83
2023/06/24 12:26:11;;;;;;;2.08;1.98;;;22.90;47.30;;;;;;5038229;28;20526;-83
2023/06/24 12:28:37;;;;;;;2.55;2.35;;;22.90;47.30;;;;;;5054497;28;20166;-82
2023/06/24 12:31:03;;;;;;;2.38;2.17;;;22.90;47.40;;;;;;5054688;28;20162;-82
2023/06/24 12:33:33;;;;;;;2.20;2.00;;;23.00;47.40;;;;;;5038321;28;20173;-82
2023/06/24 12:36:03;;;;;;;2.50;2.30;;;22.90;47.40;;;;;;5020966;28;20177;-82
2023/06/24 12:38:29;;;;;;;2.20;2.00;;;23.00;47.40;;;;;;5004404;28;20572;-83
2023/06/24 12:40:56;;;;;;;2.40;2.20;;;22.90;47.50;;;;;;5054462;28;20158;-83
2023/06/24 12:43:21;;;;;;;2.28;2.08;;;22.90;47.50;;;;;;5021251;28;20235;-82
2023/06/24 12:45:47;;;;;;;2.35;2.15;;;22.90;47.50;;;;;;5054290;28;20621;-82
2023/06/24 12:48:13;;;;;;;2.42;2.22;;;22.90;47.50;;;;;;5038538;28;20227;-83